Flight Track Log - Related Links

Times and Time Zones

All times are in EDT time to prevent confusion due to time zone crossing. See the GJS3706 flight status page for this flight to view local times or setup timezone preferences in your user account.

Time Position Orientation Groundspeed Altitude Reporting Facility
EDT Latitude Longitude Course Direction KTS MPH feet Rate Location/Type
Wed 19:48:33 39.8167 -104.6500 108° East 174 200 6,500  Level Denver TRACON
Wed 19:49:33 39.8000 -104.5833 108° East 216 249 8,300 1,560 Climbing Denver TRACON
Wed 19:50:13 39.7781 -104.5286 118° Southeast 238 274 9,100 1,412 Climbing Denver Center
Wed 19:51:15 39.7519 -104.4314 109° East 285 328 10,700 1,694 Climbing Denver Center
Wed 19:52:17 39.7369 -104.3133 99° East 320 368 12,600 1,790 Climbing Denver Center
Wed 19:53:19 39.7347 -104.2022 91° East 310 357 14,400 1,742 Climbing Denver Center
Wed 19:54:21 39.7336 -104.0739 91° East 331 381 16,200 1,016 Climbing Denver Center
Wed 19:55:23 39.7306 -103.9422 92° East 362 417 16,500 726 Climbing Denver Center
Wed 19:56:25 39.7433 -103.7978 83° East 402 463 17,700 1,258 Climbing Denver Center
Wed 19:57:27 39.7581 -103.6400 83° East 395 455 19,100 1,306 Climbing Denver Center
Wed 19:58:29 39.7794 -103.4906 79° East 417 480 20,400 1,258 Climbing Denver Center
Wed 19:59:31 39.8086 -103.3408 76° East 425 489 21,700 1,161 Climbing Denver Center
Wed 20:00:33 39.8347 -103.1886 77° East 432 497 22,800 968 Climbing Denver Center
Wed 20:01:35 39.8633 -103.0336 76° East 440 506 23,700 871 Climbing Denver Center
Wed 20:02:37 39.8781 -102.8694 83° East 454 522 24,600 871 Climbing Denver Center
Wed 20:03:39 39.8592 -102.6636 97° East 474 545 25,500 871 Climbing Denver Center
Wed 20:04:41 39.8417 -102.4975 98° East 484 557 26,400 919 Climbing Denver Center
Wed 20:05:43 39.8236 -102.3011 97° East 489 563 27,400 823 Climbing Denver Center
Wed 20:06:45 39.7722 -102.1461 113° Southeast 496 571 28,100 624 Climbing Denver Center
Wed 20:07:48 39.6806 -101.9856 127° Southeast 497 572 28,700 581 Climbing Denver Center
Wed 20:08:49 39.6044 -101.8392 124° Southeast 510 587 29,300 585 Climbing Denver Center
Wed 20:09:51 39.5303 -101.6919 123° Southeast 511 588 29,900 290 Climbing Denver Center
Wed 20:10:53 39.4606 -101.5119 117° Southeast 507 583 29,900 -348 Level Denver Center
Wed 20:12:26 39.4014 -101.2614 107° East 482 555 29,000 -432 Descending Kansas City Center
Wed 20:12:58 39.3783 -101.1711 108° East 481 554 29,000  Level Denver Center
Wed 20:14:00 39.3261 -101.0208 114° Southeast 484 557 29,000  Level Denver Center
Wed 20:15:14 39.2378 -100.8619 126° Southeast 488 562 29,000  Level Denver Center
Wed 20:16:16 39.1367 -100.6781 125° Southeast 492 566 29,000  Level Denver Center
Wed 20:17:18 39.0614 -100.5439 126° Southeast 487 560 29,000  Level Denver Center
Wed 20:18:20 38.9769 -100.3944 126° Southeast 486 559 29,000  Level Denver Center
Wed 20:19:22 38.9006 -100.2583 126° Southeast 488 562 29,000  Level Denver Center
Wed 20:20:24 38.8097 -100.0992 126° Southeast 492 566 29,000  Level Denver Center
Wed 20:21:26 38.7333 -99.9625 126° Southeast 492 566 29,000  Level Denver Center
Wed 20:22:28 38.6425 -99.8036 126° Southeast 493 567 29,000  Level Denver Center
Wed 20:23:30 38.5644 -99.6692 127° Southeast 491 565 29,000  Level Denver Center
Wed 20:24:32 38.4733 -99.5106 126° Southeast 493 567 29,000  Level Denver Center
Wed 20:25:45 38.3831 -99.3542 126° Southeast 492 566 29,000  Level Kansas City Center
Wed 20:26:46 38.3014 -99.2144 127° Southeast 493 567 29,000  Level Kansas City Center
Wed 20:27:48 38.2197 -99.0753 127° Southeast 493 567 29,000  Level Kansas City Center
Wed 20:28:49 38.1364 -98.9347 127° Southeast 496 571 29,000  Level Kansas City Center
Wed 20:29:51 38.0386 -98.7683 127° Southeast 493 567 29,000  Level Kansas City Center
Wed 20:30:52 37.9564 -98.6283 127° Southeast 494 568 29,000  Level Kansas City Center
Wed 20:31:53 37.8736 -98.4897 127° Southeast 496 571 29,000  Level Kansas City Center
Wed 20:32:55 37.7908 -98.3508 127° Southeast 498 573 29,000  Level Kansas City Center
Wed 20:33:56 37.7078 -98.2128 127° Southeast 499 574 29,000  Level Kansas City Center
Wed 20:34:57 37.6153 -98.0603 127° Southeast 501 577 29,000  Level Kansas City Center
Wed 20:35:59 37.5406 -97.9361 127° Southeast 502 578 29,000  Level Kansas City Center
Wed 20:37:00 37.4392 -97.7711 128° Southeast 501 577 29,000  Level Kansas City Center
Wed 20:38:01 37.3553 -97.6331 127° Southeast 499 574 29,000  Level Kansas City Center
Wed 20:39:03 37.2708 -97.4956 128° Southeast 500 575 29,000 -390 Level Kansas City Center
Wed 20:40:04 37.1881 -97.3597 127° Southeast 496 571 28,200 -1,525 Descending Kansas City Center
Wed 20:41:05 37.1025 -97.2217 128° Southeast 498 573 25,900 -2,244 Descending Kansas City Center
Wed 20:42:07 37.0197 -97.0869 128° Southeast 495 570 23,600 -2,244 Descending Kansas City Center
Wed 20:43:08 36.9394 -96.9564 128° Southeast 484 557 21,300 -2,213 Descending Kansas City Center
Wed 20:44:09 36.8617 -96.8314 128° Southeast 471 542 19,100 -2,195 Descending Kansas City Center
Wed 20:45:11 36.7739 -96.6975 129° Southeast 433 498 16,800 -2,049 Descending Kansas City Center
Wed 20:46:12 36.7042 -96.5850 128° Southeast 420 483 14,900 -1,900 Descending Kansas City Center
Wed 20:47:11 36.6408 -96.4842 128° Southeast 390 449 13,000 -1,750 Descending Kansas City Center
Wed 20:48:12 36.5708 -96.3706 127° Southeast 381 438 11,400 -1,339 Descending Kansas City Center
Wed 20:49:12 36.5156 -96.2839 128° Southeast 310 357 10,300 -1,357 Descending Kansas City Center
Wed 20:50:07 36.4722 -96.2142 128° Southeast 295 339 8,800 -1,722 Descending Kansas City Center
Wed 20:51:07 36.4208 -96.1272 126° Southeast 288 331 7,000 -1,276 Descending Kansas City Center
Wed 20:52:14 36.3700 -96.0428 127° Southeast 280 322 6,100 -400 Descending Kansas City Center
Wed 20:53:22 36.3142 -95.9856 140° Southeast 289 333 6,100 -47 Level Kansas City Center
Wed 20:54:23 36.2222 -95.9836 179° South 281 323 6,000 -368 Descending Kansas City Center
Wed 20:55:16 36.1656 -95.9836 180° South 219 252 5,400 -439 Descending Kansas City Center
Wed 20:56:26 36.1025 -95.9803 178° South 213 245 5,100 -694 Descending Kansas City Center
Wed 20:57:17 36.0644 -95.9528 150° Southeast 182 209 4,000 -1,339 Descending Kansas City Center
Wed 20:58:18 36.0600 -95.9017 96° East 185 213 2,600 -942 Descending Kansas City Center
Wed 20:59:18 36.1050 -95.8881 14° North 141 162 2,100 -545 Descending Kansas City Center
Wed 21:00:19 36.1425 -95.8858 North 136 157 1,500 -569 Descending Kansas City Center
Wed 21:01:35 36.1856 -95.8831 North 141 162 800 -553 Descending Kansas City Center

Login

Don't have an account? Register now (free) for customized features, flight alerts, and more!